Time;durP1;ratioP1;P1;durP2;ratioP2;P2;SDS_P1;SDS_P2;PMS_P1;PMS_P2;Temp;Humidity;BMP_temperature;BMP_pressure;BME280_temperature;BME280_humidity;BME280_pressure;Samples;Min_cycle;Max_cycle;Signal;HPM_P1;HPM_P2
2020/12/29 00:02:08;;;;;;;8.87;5.47;;;3.40;99.90;;;-143.32;100.00;97616.38;4735649;30;20465;-90
2020/12/29 00:04:35;;;;;;;7.57;5.20;;;3.30;99.90;;;-143.32;100.00;97597.94;4735559;30;20505;-89
2020/12/29 00:07:01;;;;;;;7.23;5.00;;;3.30;99.90;;;-143.32;100.00;97610.22;4735668;30;20512;-88
2020/12/29 00:09:29;;;;;;;5.43;4.43;;;3.40;99.90;;;-143.32;100.00;97591.81;4735314;30;20465;-90
2020/12/29 00:11:57;;;;;;;7.00;5.20;;;3.40;99.90;;;-143.32;100.00;97591.81;4735596;30;20499;-88
2020/12/29 00:14:25;;;;;;;6.57;4.40;;;3.30;99.90;;;-143.32;100.00;97624.53;4735543;30;20814;-91
2020/12/29 00:16:52;;;;;;;7.70;4.87;;;3.30;99.90;;;-143.32;100.00;97595.91;4735462;30;20466;-88
2020/12/29 00:19:21;;;;;;;5.43;4.40;;;3.20;99.90;;;-143.32;100.00;97610.22;4735463;30;20461;-88
2020/12/29 00:21:48;;;;;;;7.90;4.73;;;3.20;99.90;;;-143.32;100.00;97634.78;4735341;30;20501;-91
2020/12/29 00:24:16;;;;;;;8.03;4.70;;;3.20;99.90;;;-143.32;100.00;97636.81;4735510;30;20465;-89
2020/12/29 00:26:43;;;;;;;6.53;5.00;;;3.20;99.90;;;-143.32;100.00;97628.63;4735505;30;20603;-90
2020/12/29 00:29:10;;;;;;;6.47;5.17;;;3.20;99.90;;;-143.32;100.00;97612.28;4736096;30;20472;-90
2020/12/29 00:31:37;;;;;;;6.90;5.00;;;3.10;99.90;;;-143.32;100.00;97610.22;4735613;30;20484;-90
2020/12/29 00:34:04;;;;;;;10.90;4.97;;;3.10;99.90;;;-143.32;100.00;97581.59;4735278;30;20468;-88
2020/12/29 00:36:34;;;;;;;10.30;4.73;;;3.10;99.90;;;-143.32;100.00;97620.47;4735132;30;20477;-90
2020/12/29 00:39:01;;;;;;;7.93;4.50;;;3.10;99.90;;;-143.32;100.00;97618.41;4736458;30;20542;-90
2020/12/29 00:41:28;;;;;;;6.13;4.10;;;3.10;99.90;;;-143.32;100.00;97651.16;4735000;30;20469;-90
2020/12/29 00:43:56;;;;;;;6.33;4.27;;;3.10;99.90;;;-143.32;100.00;97622.50;4735641;30;20518;-90
2020/12/29 00:46:23;;;;;;;7.20;4.97;;;3.20;99.90;;;-143.32;100.00;97614.31;4736497;30;20516;-89
2020/12/29 00:48:51;;;;;;;14.83;4.63;;;3.20;99.90;;;-143.32;100.00;97540.66;4736060;30;20689;-91
2020/12/29 00:51:20;;;;;;;5.37;4.53;;;3.30;99.90;;;-143.32;100.00;97604.09;4735751;30;20471;-90
2020/12/29 00:53:48;;;;;;;5.57;4.43;;;3.20;99.90;;;-143.32;100.00;97626.59;4735806;30;20822;-91
2020/12/29 00:56:15;;;;;;;5.73;3.90;;;3.20;99.90;;;-143.32;100.00;97634.78;4735539;30;20519;-91
2020/12/29 00:58:42;;;;;;;7.17;4.90;;;3.30;99.90;;;-143.32;100.00;97638.88;4735655;30;20472;-90
2020/12/29 01:01:11;;;;;;;4.43;3.90;;;3.20;99.90;;;-143.32;100.00;97624.53;4735933;30;20485;-92
2020/12/29 01:03:39;;;;;;;5.83;4.20;;;3.20;99.90;;;-143.32;100.00;97679.78;4735957;30;20465;-91
2020/12/29 01:06:09;;;;;;;5.77;4.30;;;3.30;99.90;;;-143.32;100.00;97606.13;4735641;30;20501;-89
2020/12/29 01:08:36;;;;;;;8.87;5.20;;;3.30;99.90;;;-143.32;100.00;97642.97;4735547;30;20484;-88
2020/12/29 01:11:03;;;;;;;6.30;4.23;;;3.40;99.90;;;-143.32;100.00;97614.31;4734878;30;20464;-89
2020/12/29 01:13:30;;;;;;;6.37;3.93;;;3.40;99.90;;;-143.32;100.00;97630.69;4735254;30;20505;-89
2020/12/29 01:16:00;;;;;;;6.27;4.47;;;3.40;99.90;;;-143.32;100.00;97604.09;4735136;30;20461;-88
2020/12/29 01:18:28;;;;;;;9.20;4.93;;;3.40;99.90;;;-143.32;100.00;97587.72;4734803;30;20445;-87
2020/12/29 01:20:55;;;;;;;8.93;4.30;;;3.40;99.90;;;-143.32;100.00;97618.41;4734837;30;20445;-88
2020/12/29 01:23:22;;;;;;;6.83;4.37;;;3.40;99.90;;;-143.32;100.00;97624.53;4736897;30;20457;-90
2020/12/29 01:25:49;;;;;;;6.63;4.53;;;3.40;99.90;;;-143.32;100.00;97647.06;4738142;30;20532;-89
2020/12/29 01:28:16;;;;;;;5.63;4.30;;;3.30;99.90;;;-143.32;100.00;97624.53;4738411;30;20465;-87
2020/12/29 01:30:47;;;;;;;7.40;4.73;;;3.20;99.90;;;-143.32;100.00;97642.97;4738357;30;20468;-88
2020/12/29 01:33:14;;;;;;;7.53;4.50;;;3.20;99.90;;;-143.32;100.00;97612.28;4737944;30;20460;-90
2020/12/29 01:35:42;;;;;;;6.07;4.33;;;3.10;99.90;;;-143.32;100.00;97667.50;4737909;30;20539;-88
2020/12/29 01:38:11;;;;;;;5.70;4.60;;;3.10;99.90;;;-143.32;100.00;97638.88;4738088;30;20812;-88
2020/12/29 01:40:37;;;;;;;7.50;4.63;;;3.10;99.90;;;-143.32;100.00;97679.78;4738834;30;20799;-89
2020/12/29 01:43:05;;;;;;;5.00;3.67;;;3.00;99.90;;;-143.32;100.00;97595.91;4738047;30;20469;-89
2020/12/29 01:45:31;;;;;;;8.80;4.20;;;3.00;99.90;;;-143.32;100.00;97634.78;4738069;30;20468;-89
2020/12/29 01:47:58;;;;;;;6.70;4.10;;;2.90;99.90;;;-143.32;100.00;97653.19;4737808;30;20464;-87
2020/12/29 01:50:26;;;;;;;6.70;4.30;;;2.90;99.90;;;-143.32;100.00;97653.19;4737847;30;20503;-88
2020/12/29 01:52:58;;;;;;;4.70;3.50;;;2.80;99.90;;;-143.32;100.00;97612.28;4737697;30;20469;-89
2020/12/29 01:55:26;;;;;;;3.77;3.23;;;2.80;99.90;;;-143.32;100.00;97626.59;4737866;30;20461;-90
2020/12/29 01:57:53;;;;;;;4.40;3.47;;;2.70;99.90;;;-143.32;100.00;97610.22;4737917;30;20484;-87
2020/12/29 02:00:20;;;;;;;4.43;3.60;;;2.70;99.90;;;-143.32;100.00;97677.75;4737732;30;20469;-91
2020/12/29 02:02:47;;;;;;;6.00;3.30;;;2.70;99.90;;;-143.32;100.00;97585.69;4738067;30;20460;-91
2020/12/29 02:05:15;;;;;;;4.17;3.57;;;2.60;99.90;;;-143.32;100.00;97690.03;4737721;30;20472;-88
2020/12/29 02:07:43;;;;;;;3.90;3.50;;;2.60;99.90;;;-143.32;100.00;97663.41;4737456;30;20508;-89
2020/12/29 02:10:11;;;;;;;5.40;4.10;;;2.70;99.90;;;-143.32;100.00;97665.47;4738165;30;20453;-92
2020/12/29 02:12:37;;;;;;;9.90;4.00;;;2.40;99.90;;;-143.32;100.00;97720.72;4738271;30;20465;-87
2020/12/29 02:15:09;;;;;;;5.23;3.43;;;2.40;99.90;;;-143.32;100.00;97659.31;4737613;30;20501;-89
2020/12/29 02:17:36;;;;;;;6.23;3.60;;;2.40;99.90;;;-143.32;100.00;97665.47;4737338;30;20450;-87
2020/12/29 02:20:07;;;;;;;6.13;3.80;;;2.50;99.90;;;-143.32;100.00;97657.28;4737560;30;21016;-88
2020/12/29 02:22:37;;;;;;;7.67;3.93;;;2.50;99.90;;;-143.32;100.00;97632.72;4737440;30;20443;-87
2020/12/29 02:25:11;;;;;;;6.40;3.87;;;2.60;99.90;;;-143.32;100.00;97669.56;4737318;30;20519;-89
2020/12/29 02:27:48;;;;;;;5.43;4.00;;;2.60;99.90;;;-143.32;100.00;97647.06;4737183;30;20992;-89
2020/12/29 02:30:16;;;;;;;4.20;3.50;;;2.70;99.90;;;-143.32;100.00;97628.63;4737049;30;20447;-89
2020/12/29 02:32:47;;;;;;;5.30;3.90;;;2.80;99.90;;;-143.32;100.00;97642.97;4737747;30;20453;-90
2020/12/29 02:35:15;;;;;;;5.73;3.87;;;2.80;99.90;;;-143.32;100.00;97690.03;4738391;30;20836;-89
2020/12/29 02:37:43;;;;;;;3.87;3.47;;;2.90;99.90;;;-143.32;100.00;97628.63;4737850;30;20442;-92
2020/12/29 02:40:10;;;;;;;7.13;3.83;;;2.80;99.90;;;-143.32;100.00;97657.28;4737573;30;20460;-89
2020/12/29 02:42:40;;;;;;;7.47;4.13;;;2.70;99.90;;;-143.32;100.00;97642.97;4737503;30;20840;-89
2020/12/29 02:45:15;;;;;;;4.97;3.40;;;2.60;99.90;;;-143.32;100.00;97600.00;4738361;30;20918;-91
2020/12/29 02:47:43;;;;;;;5.03;3.80;;;2.80;99.90;;;-143.32;100.00;97638.88;4738145;30;20489;-91
2020/12/29 02:50:09;;;;;;;4.20;3.30;;;2.90;99.90;;;-143.32;100.00;97669.56;4738019;30;20477;-90
2020/12/29 02:52:36;;;;;;;5.50;3.83;;;3.00;99.90;;;-143.32;100.00;97602.03;4737393;30;20453;-89
2020/12/29 02:55:04;;;;;;;5.00;3.80;;;3.00;99.90;;;-143.32;100.00;97649.09;4736984;30;20454;-89
2020/12/29 02:57:30;;;;;;;5.40;3.80;;;3.00;99.90;;;-143.32;100.00;97640.91;4737543;30;20461;-89
2020/12/29 02:59:57;;;;;;;5.50;4.03;;;3.00;99.90;;;-143.32;100.00;97640.91;4737234;30;20491;-91
2020/12/29 03:02:24;;;;;;;4.40;3.80;;;2.90;99.90;;;-143.32;100.00;97616.38;4737652;30;20473;-92
2020/12/29 03:04:50;;;;;;;7.17;4.73;;;3.10;99.90;;;-143.32;100.00;97628.63;4737228;30;20479;-92
2020/12/29 03:07:17;;;;;;;6.87;4.60;;;2.90;99.90;;;-143.32;100.00;97636.81;4736358;30;20497;-87
2020/12/29 03:09:44;;;;;;;7.47;4.57;;;2.90;99.90;;;-143.32;100.00;97685.94;4736693;30;20465;-90
2020/12/29 03:12:12;;;;;;;7.87;5.07;;;2.70;99.90;;;-143.32;100.00;97622.50;4736683;30;20472;-88
2020/12/29 03:14:39;;;;;;;6.97;4.60;;;2.60;99.90;;;-143.32;100.00;97653.19;4736523;30;20465;-87
2020/12/29 03:17:05;;;;;;;8.60;4.90;;;2.50;99.90;;;-143.32;100.00;97655.22;4736400;30;20469;-88
2020/12/29 03:19:32;;;;;;;8.13;5.00;;;2.40;99.90;;;-143.32;100.00;97616.38;4736692;30;20460;-90
2020/12/29 03:21:59;;;;;;;6.60;4.67;;;2.40;99.90;;;-143.32;100.00;97632.72;4737510;30;20461;-88
2020/12/29 03:24:25;;;;;;;9.10;4.97;;;2.30;99.90;;;-143.32;100.00;97683.88;4737210;30;20539;-89
2020/12/29 03:26:52;;;;;;;7.07;5.00;;;2.30;99.90;;;-143.32;100.00;97708.44;4736593;30;20524;-88
2020/12/29 03:29:20;;;;;;;8.33;5.10;;;2.20;99.90;;;-143.32;100.00;97667.50;4736057;30;20969;-88
2020/12/29 03:31:46;;;;;;;15.27;4.83;;;2.20;99.90;;;-143.32;100.00;97683.88;4736351;30;20492;-88
2020/12/29 03:34:21;;;;;;;6.77;4.80;;;2.10;99.90;;;-143.32;100.00;97704.34;4736623;30;20465;-89
2020/12/29 03:36:48;;;;;;;5.63;4.40;;;2.00;99.90;;;-143.32;100.00;97661.38;4736284;30;20473;-91
2020/12/29 03:39:15;;;;;;;6.43;4.80;;;2.00;99.90;;;-143.32;100.00;97681.84;4736552;30;20957;-89
2020/12/29 03:41:42;;;;;;;9.63;5.70;;;2.00;99.90;;;-143.32;100.00;97687.97;4736412;30;20453;-88
2020/12/29 03:44:09;;;;;;;8.90;5.40;;;1.90;99.90;;;-143.32;100.00;97651.16;4736137;30;20471;-90
2020/12/29 03:46:36;;;;;;;6.60;5.37;;;1.90;99.90;;;-143.32;100.00;97681.84;4735381;30;20501;-89
2020/12/29 03:49:03;;;;;;;7.40;5.73;;;1.90;99.90;;;-143.32;100.00;97716.63;4736058;30;20449;-87
2020/12/29 03:51:30;;;;;;;8.73;5.90;;;1.80;99.90;;;-143.32;100.00;97722.75;4735998;30;20473;-91
2020/12/29 03:53:57;;;;;;;8.50;5.90;;;1.90;99.90;;;-143.32;100.00;97728.88;4735927;30;20799;-88
2020/12/29 03:56:23;;;;;;;10.70;6.70;;;1.70;99.90;;;-143.32;100.00;97712.53;4735999;30;20457;-86
2020/12/29 03:58:50;;;;;;;6.97;5.50;;;1.70;99.90;;;-143.32;100.00;97720.72;4735910;30;20486;-88
2020/12/29 04:01:17;;;;;;;18.83;6.70;;;1.60;99.90;;;-143.32;100.00;97692.06;4736552;30;20857;-87
2020/12/29 04:03:44;;;;;;;7.57;5.80;;;1.60;99.90;;;-143.32;100.00;97669.56;4736275;30;20487;-87
2020/12/29 04:06:12;;;;;;;8.70;5.93;;;1.60;99.90;;;-143.32;100.00;97687.97;4735713;30;20559;-90
2020/12/29 04:08:39;;;;;;;10.57;6.00;;;1.60;99.90;;;-143.32;100.00;97726.84;4735805;30;20466;-88
2020/12/29 04:11:06;;;;;;;10.93;6.77;;;1.60;99.90;;;-143.32;100.00;97716.63;4735815;30;20457;-87
2020/12/29 04:13:33;;;;;;;9.60;5.90;;;1.80;99.90;;;-143.32;100.00;97677.75;4736283;30;20461;-88
2020/12/29 04:16:00;;;;;;;12.77;6.30;;;2.00;99.90;;;-143.32;100.00;97730.94;4735417;30;20473;-87
2020/12/29 04:18:26;;;;;;;11.10;6.90;;;1.90;99.90;;;-143.32;100.00;97690.03;4735549;30;20465;-90
2020/12/29 04:20:54;;;;;;;12.90;6.50;;;2.00;99.90;;;-143.32;100.00;97673.66;4735385;30;20519;-90
2020/12/29 04:23:21;;;;;;;12.03;5.87;;;2.10;99.90;;;-143.32;100.00;97667.50;4735492;30;20477;-88
2020/12/29 04:25:47;;;;;;;9.40;6.50;;;2.20;99.90;;;-143.32;100.00;97659.31;4735507;30;20441;-87
2020/12/29 04:28:14;;;;;;;11.20;6.27;;;2.30;99.90;;;-143.32;100.00;97679.78;4735562;30;20535;-88
2020/12/29 04:30:41;;;;;;;11.97;6.40;;;2.20;99.90;;;-143.32;100.00;97683.88;4735497;30;20468;-88
2020/12/29 04:33:08;;;;;;;8.10;5.90;;;2.30;99.90;;;-143.32;100.00;97679.78;4735683;30;20461;-90
2020/12/29 04:35:35;;;;;;;9.47;6.10;;;2.40;99.90;;;-143.32;100.00;97645.00;4735075;30;20465;-86
2020/12/29 04:38:02;;;;;;;9.77;6.77;;;2.40;99.90;;;-143.32;100.00;97702.28;4736738;30;20465;-90
2020/12/29 04:40:30;;;;;;;9.77;5.90;;;2.50;99.90;;;-143.32;100.00;97690.03;4735453;30;20474;-89
2020/12/29 04:42:57;;;;;;;6.97;5.07;;;2.30;99.90;;;-143.32;100.00;97679.78;4735353;30;20450;-89
2020/12/29 04:45:25;;;;;;;7.63;5.43;;;2.20;99.90;;;-143.32;100.00;97638.88;4735790;30;20593;-89
2020/12/29 04:47:53;;;;;;;6.60;5.30;;;2.10;99.90;;;-143.32;100.00;97667.50;4735405;30;21005;-88
2020/12/29 04:50:20;;;;;;;8.80;5.90;;;2.10;99.90;;;-143.32;100.00;97712.53;4735302;30;20450;-87
2020/12/29 04:52:57;;;;;;;7.87;5.57;;;2.10;99.90;;;-143.32;100.00;97687.97;4734953;30;20482;-89
2020/12/29 04:55:30;;;;;;;8.47;5.87;;;2.10;99.90;;;-143.32;100.00;97657.28;4735068;30;20453;-89
2020/12/29 04:57:59;;;;;;;14.57;5.80;;;2.10;99.90;;;-143.32;100.00;97687.97;4736780;30;20524;-90
2020/12/29 05:00:27;;;;;;;11.00;7.13;;;2.10;99.90;;;-143.32;100.00;97661.38;4738988;30;20465;-89
2020/12/29 05:02:54;;;;;;;10.03;6.60;;;2.00;99.90;;;-143.32;100.00;97683.88;4739310;30;20472;-90
2020/12/29 05:05:23;;;;;;;11.20;6.50;;;2.00;99.90;;;-143.32;100.00;97677.75;4739178;30;20465;-89
2020/12/29 05:07:50;;;;;;;9.63;6.13;;;2.00;99.90;;;-143.32;100.00;97687.97;4739606;30;20593;-91
2020/12/29 05:10:17;;;;;;;9.33;5.60;;;1.90;99.90;;;-143.32;100.00;97685.94;4739273;30;20495;-90
2020/12/29 05:12:52;;;;;;;7.10;6.00;;;1.80;99.90;;;-143.32;100.00;97704.34;4739085;30;20461;-91
2020/12/29 05:15:21;;;;;;;7.73;5.80;;;1.70;99.90;;;-143.32;100.00;97732.97;4738666;30;20522;-90
2020/12/29 05:17:48;;;;;;;9.67;5.60;;;1.60;99.90;;;-143.32;100.00;97661.38;4738879;30;20453;-90
2020/12/29 05:20:15;;;;;;;11.57;6.37;;;1.60;99.90;;;-143.32;100.00;97743.22;4738607;30;20961;-90
2020/12/29 05:22:42;;;;;;;8.30;5.57;;;1.50;99.90;;;-143.32;100.00;97710.47;4738774;30;20468;-88
2020/12/29 05:25:08;;;;;;;6.90;5.50;;;1.50;99.90;;;-143.32;100.00;97724.81;4739341;30;20968;-90
2020/12/29 05:27:37;;;;;;;8.00;5.77;;;1.50;99.90;;;-143.32;100.00;97716.63;4738278;30;20826;-89
2020/12/29 05:30:06;;;;;;;8.03;5.67;;;1.40;99.90;;;-143.32;100.00;97700.25;4738501;30;20527;-90
2020/12/29 05:32:38;;;;;;;9.30;6.23;;;1.40;99.90;;;-143.32;100.00;97712.53;4738518;30;20946;-92
2020/12/29 05:35:15;;;;;;;7.80;6.07;;;1.50;99.90;;;-143.32;100.00;97739.13;4738523;30;20437;-89
2020/12/29 05:37:43;;;;;;;9.47;6.30;;;1.30;99.90;;;-143.32;100.00;97724.81;4738378;30;20539;-92
2020/12/29 05:40:31;;;;;;;13.10;6.50;;;1.20;99.90;;;-143.32;100.00;97698.19;4738281;30;20532;-90
2020/12/29 05:42:59;;;;;;;10.47;6.77;;;1.10;99.90;;;-143.32;100.00;97716.63;4738293;30;20910;-89
2020/12/29 05:45:28;;;;;;;16.80;7.27;;;1.20;99.90;;;-143.32;100.00;97730.94;4738829;30;20539;-90
2020/12/29 05:47:57;;;;;;;10.63;6.63;;;1.00;99.90;;;-143.32;100.00;97743.22;4738052;30;20509;-89
2020/12/29 05:50:25;;;;;;;9.70;7.20;;;1.00;99.90;;;-143.32;100.00;97741.16;4738184;30;20453;-90
2020/12/29 05:52:55;;;;;;;15.70;7.03;;;1.10;99.90;;;-143.32;100.00;97730.94;4738368;30;20457;-91
2020/12/29 05:55:22;;;;;;;16.43;7.17;;;1.10;99.90;;;-143.32;100.00;97741.16;4738179;30;20860;-91
2020/12/29 05:58:01;;;;;;;10.57;7.13;;;1.00;99.90;;;-143.32;100.00;97702.28;4737910;30;20469;-92
2020/12/29 06:00:29;;;;;;;11.10;7.60;;;1.10;99.90;;;-143.32;100.00;97726.84;4737841;30;20452;-90
2020/12/29 06:02:58;;;;;;;21.57;8.70;;;1.10;99.90;;;-143.32;100.00;97716.63;4737991;30;20542;-91
2020/12/29 06:05:25;;;;;;;12.37;7.83;;;1.10;99.90;;;-143.32;100.00;97735.03;4737882;30;20469;-89
2020/12/29 06:07:55;;;;;;;12.07;7.73;;;1.10;99.90;;;-143.32;100.00;97749.34;4737652;30;20534;-90
2020/12/29 06:10:23;;;;;;;12.83;6.67;;;1.30;99.90;;;-143.32;100.00;97730.94;4737349;30;20814;-90
2020/12/29 06:12:56;;;;;;;19.00;8.10;;;1.20;99.90;;;-143.32;100.00;97749.34;4737874;30;20972;-87
2020/12/29 06:15:26;;;;;;;12.63;7.60;;;1.20;99.90;;;-143.32;100.00;97737.06;4737404;30;20457;-89
2020/12/29 06:18:02;;;;;;;11.53;6.93;;;1.20;99.90;;;-143.32;100.00;97712.53;4737324;30;20461;-90
2020/12/29 06:20:38;;;;;;;17.73;7.30;;;1.30;99.90;;;-143.32;100.00;97741.16;4737443;30;20864;-89
2020/12/29 06:23:07;;;;;;;8.07;6.40;;;1.10;99.90;;;-143.32;100.00;97718.66;4737396;30;20468;-88
2020/12/29 06:25:36;;;;;;;10.30;7.30;;;1.20;99.90;;;-143.32;100.00;97739.13;4737956;30;20527;-89
2020/12/29 06:28:06;;;;;;;8.73;6.63;;;1.10;99.90;;;-143.32;100.00;97714.56;4736968;30;21036;-87
2020/12/29 06:30:34;;;;;;;10.63;7.27;;;1.00;99.90;;;-143.32;100.00;97737.06;4737325;30;20462;-88
2020/12/29 06:33:04;;;;;;;12.97;7.77;;;1.10;99.90;;;-143.32;100.00;97706.38;4737318;30;20460;-86
2020/12/29 06:35:31;;;;;;;11.57;7.80;;;1.10;99.90;;;-143.32;100.00;97718.66;4737016;30;21028;-90
2020/12/29 06:38:06;;;;;;;17.80;7.67;;;1.20;99.90;;;-143.32;100.00;97712.53;4737287;30;20497;-89
2020/12/29 06:40:34;;;;;;;12.17;8.50;;;1.10;99.90;;;-143.32;100.00;97710.47;4737452;30;20457;-88
2020/12/29 06:43:01;;;;;;;14.57;8.23;;;1.20;99.90;;;-143.32;100.00;97694.13;4737072;30;20466;-87
2020/12/29 06:45:35;;;;;;;12.53;8.50;;;1.20;99.90;;;-143.32;100.00;97700.25;4736776;30;20469;-87
2020/12/29 06:48:15;;;;;;;14.60;7.83;;;1.20;99.90;;;-143.32;100.00;97698.19;4736720;30;20491;-89
2020/12/29 06:50:42;;;;;;;16.67;8.30;;;1.30;99.90;;;-143.32;100.00;97710.47;4736768;30;20930;-90
2020/12/29 06:53:09;;;;;;;17.43;7.63;;;1.30;99.90;;;-143.32;100.00;97712.53;4737187;30;20519;-90
2020/12/29 06:55:38;;;;;;;17.87;9.03;;;1.30;99.90;;;-143.32;100.00;97722.75;4736943;30;20450;-87
2020/12/29 06:58:05;;;;;;;14.20;8.30;;;1.30;99.90;;;-143.32;100.00;97692.06;4736706;30;20457;-87
2020/12/29 07:00:35;;;;;;;15.07;8.87;;;1.40;99.90;;;-143.32;100.00;97732.97;4737096;30;20461;-88
2020/12/29 07:03:05;;;;;;;16.67;8.40;;;1.40;99.90;;;-143.32;100.00;97708.44;4736450;30;20465;-87
2020/12/29 07:05:37;;;;;;;13.57;7.93;;;1.30;99.90;;;-143.32;100.00;97700.25;4736455;30;20456;-88
2020/12/29 07:08:05;;;;;;;12.27;8.40;;;1.50;99.90;;;-143.32;100.00;97696.16;4736664;30;20496;-89
2020/12/29 07:10:36;;;;;;;14.23;8.47;;;1.50;99.90;;;-143.32;100.00;97665.47;4736500;30;20968;-90
2020/12/29 07:13:12;;;;;;;13.70;9.00;;;1.50;99.90;;;-143.32;100.00;97743.22;4736557;30;21003;-88
2020/12/29 07:15:47;;;;;;;12.63;8.50;;;1.60;99.90;;;-143.32;100.00;97710.47;4737091;30;20461;-89
2020/12/29 07:18:24;;;;;;;14.47;9.10;;;1.70;99.90;;;-143.32;100.00;97657.28;4736767;30;20471;-91
2020/12/29 07:21:03;;;;;;;22.60;9.67;;;1.60;99.90;;;-143.32;100.00;97702.28;4735889;30;20426;-90
2020/12/29 07:23:30;;;;;;;16.87;9.20;;;1.70;99.90;;;-143.32;100.00;97665.47;4736109;30;20484;-87
2020/12/29 07:25:59;;;;;;;14.43;9.80;;;1.60;99.90;;;-143.32;100.00;97677.75;4736983;30;20465;-88
2020/12/29 07:28:30;;;;;;;19.07;10.07;;;1.80;99.90;;;-143.32;100.00;97700.25;4736324;30;20493;-89
2020/12/29 07:30:57;;;;;;;17.70;10.17;;;1.80;99.90;;;-143.32;100.00;97679.78;4736206;30;20819;-89
2020/12/29 07:33:26;;;;;;;18.30;10.90;;;1.80;99.90;;;-143.32;100.00;97651.16;4735893;30;20455;-89
2020/12/29 07:35:54;;;;;;;19.87;10.17;;;1.80;99.90;;;-143.32;100.00;97700.25;4736114;30;20481;-90
2020/12/29 07:38:22;;;;;;;17.43;9.67;;;1.90;99.90;;;-143.32;100.00;97726.84;4736134;30;20469;-92
2020/12/29 07:44:33;;;;;;;16.60;9.57;;;1.90;99.90;;;-143.32;100.00;97710.47;4736159;30;20440;-89
2020/12/29 07:47:00;;;;;;;22.00;10.50;;;1.90;99.90;;;-143.32;100.00;97677.75;4736074;30;20497;-89
2020/12/29 07:49:28;;;;;;;21.10;10.60;;;1.90;99.90;;;-143.32;100.00;97661.38;4735867;30;20450;-91
2020/12/29 07:51:56;;;;;;;20.77;11.33;;;1.90;99.90;;;-143.32;100.00;97675.69;4736545;30;20827;-89
2020/12/29 07:54:22;;;;;;;21.73;12.00;;;2.00;99.90;;;-143.32;100.00;97681.84;4735950;30;20527;-89
2020/12/29 07:56:49;;;;;;;19.03;11.60;;;2.00;99.90;;;-143.32;100.00;97663.41;4735924;30;20460;-88
2020/12/29 07:59:17;;;;;;;20.27;12.10;;;2.00;99.90;;;-143.32;100.00;97728.88;4735820;30;20518;-88
2020/12/29 08:01:51;;;;;;;25.23;11.50;;;2.20;99.90;;;-143.32;100.00;97679.78;4735833;30;20997;-89
2020/12/29 08:04:31;;;;;;;22.30;12.10;;;2.00;99.90;;;-143.32;100.00;97708.44;4735560;30;20460;-87
2020/12/29 08:07:06;;;;;;;22.63;12.83;;;2.00;99.90;;;-143.32;100.00;97696.16;4735568;30;20492;-88
2020/12/29 08:09:45;;;;;;;19.53;12.93;;;2.10;99.90;;;-143.32;100.00;97669.56;4736144;30;20464;-89
2020/12/29 08:12:16;;;;;;;21.67;12.33;;;2.00;99.90;;;-143.32;100.00;97685.94;4735700;30;20532;-88
2020/12/29 08:14:42;;;;;;;24.97;11.87;;;2.00;99.90;;;-143.32;100.00;97687.97;4735401;30;20933;-88
2020/12/29 08:17:09;;;;;;;20.63;12.90;;;2.10;99.90;;;-143.32;100.00;97671.59;4735642;30;20945;-87
2020/12/29 08:19:37;;;;;;;28.03;12.77;;;2.10;99.90;;;-143.32;100.00;97716.63;4741420;30;20479;-87
2020/12/29 08:22:07;;;;;;;27.67;14.30;;;2.10;99.90;;;-143.32;100.00;97624.53;4753166;30;20464;-87
2020/12/29 08:24:34;;;;;;;24.40;11.70;;;2.10;99.90;;;-143.32;100.00;97681.84;4740399;30;20469;-87
2020/12/29 08:30:42;;;;;;;25.37;11.97;;;2.20;99.90;;;-143.32;100.00;97692.06;4721291;30;20580;-87
2020/12/29 08:33:09;;;;;;;20.53;11.60;;;2.20;99.90;;;-143.32;100.00;97681.84;4735324;30;20476;-88
2020/12/29 08:35:45;;;;;;;25.63;11.53;;;2.20;99.90;;;-143.32;100.00;97657.28;4734969;30;20473;-87
2020/12/29 08:38:26;;;;;;;18.40;10.70;;;2.20;99.90;;;-143.32;100.00;97653.19;4735471;30;20437;-87
2020/12/29 08:41:05;;;;;;;25.47;12.00;;;2.20;99.90;;;-143.32;100.00;97679.78;4735142;30;20451;-88
2020/12/29 08:43:43;;;;;;;18.97;11.23;;;2.20;99.90;;;-143.32;100.00;97673.66;4735748;30;20446;-88
2020/12/29 08:46:12;;;;;;;23.43;10.10;;;2.30;99.90;;;-143.32;100.00;97681.84;4735011;30;20445;-91
2020/12/29 08:48:40;;;;;;;18.47;10.73;;;2.20;99.90;;;-143.32;100.00;97696.16;4737402;30;20532;-91
2020/12/29 08:51:25;;;;;;;18.80;11.80;;;2.30;99.90;;;-143.32;100.00;97702.28;4735845;30;20875;-90
2020/12/29 08:53:52;;;;;;;18.90;11.07;;;2.30;99.90;;;-143.32;100.00;97679.78;4735999;30;20449;-91
2020/12/29 08:56:23;;;;;;;23.43;11.80;;;2.30;99.90;;;-143.32;100.00;97716.63;4735680;30;20927;-91
2020/12/29 09:02:41;;;;;;;20.87;11.37;;;2.30;99.90;;;-143.32;100.00;97687.97;4745013;30;20443;-92
2020/12/29 09:05:08;;;;;;;22.57;11.93;;;2.30;99.90;;;-143.32;100.00;97669.56;4743099;30;20468;-90
2020/12/29 09:07:47;;;;;;;29.70;11.37;;;2.20;99.90;;;-143.32;100.00;97669.56;4744637;30;20497;-91
2020/12/29 09:10:17;;;;;;;21.53;11.37;;;2.30;99.90;;;-143.32;100.00;97663.41;4741881;30;20564;-89
2020/12/29 09:12:51;;;;;;;19.80;11.17;;;2.30;99.90;;;-143.32;100.00;97665.47;4746035;30;20592;-92
2020/12/29 09:15:31;;;;;;;22.77;12.27;;;2.30;99.90;;;-143.32;100.00;97687.97;4741342;30;20548;-92
2020/12/29 09:18:11;;;;;;;19.37;12.03;;;2.20;99.90;;;-143.32;100.00;97700.25;4740316;30;20461;-92
2020/12/29 09:20:47;;;;;;;26.93;13.87;;;2.30;99.90;;;-143.32;100.00;97661.38;4742006;30;20544;-93
2020/12/29 09:23:22;;;;;;;17.30;11.27;;;2.30;99.90;;;-143.32;100.00;97667.50;4741286;30;20522;-93
2020/12/29 09:26:01;;;;;;;25.53;12.80;;;2.30;99.90;;;-143.32;100.00;97677.75;4740503;30;20479;-92
2020/12/29 09:28:35;;;;;;;25.97;11.40;;;2.30;99.90;;;-143.32;100.00;97692.06;4747126;30;20460;-93
2020/12/29 09:31:07;;;;;;;19.73;11.80;;;2.30;99.90;;;-143.32;100.00;97716.63;4725266;30;20461;-91
2020/12/29 09:33:40;;;;;;;25.40;12.77;;;2.30;99.90;;;-143.32;100.00;97653.19;4740698;30;20495;-92
2020/12/29 10:41:34;;;;;;;29.80;16.50;;;2.50;99.90;;;-143.32;100.00;97657.28;4735121;30;20440;-87
2020/12/29 10:44:08;;;;;;;36.63;18.20;;;2.60;99.90;;;-143.32;100.00;97649.09;4735210;30;20465;-86
2020/12/29 10:46:36;;;;;;;28.00;17.73;;;2.60;99.90;;;-143.32;100.00;97649.09;4777848;30;20498;-87
2020/12/29 10:49:04;;;;;;;33.00;16.30;;;2.70;99.90;;;-143.32;100.00;97669.56;4789971;30;20486;-84
2020/12/29 10:51:31;;;;;;;35.57;18.50;;;2.70;99.90;;;-143.32;100.00;97683.88;4790482;30;20450;-85
2020/12/29 10:54:01;;;;;;;34.67;18.90;;;2.70;99.90;;;-143.32;100.00;97694.13;4790316;30;20454;-86
2020/12/29 10:56:36;;;;;;;30.80;18.70;;;2.70;99.90;;;-143.32;100.00;97649.09;4795672;29;20506;-92
2020/12/29 11:02:59;;;;;;;37.33;18.87;;;2.70;99.90;;;-143.32;100.00;97657.28;4806857;30;20437;-92
2020/12/29 11:05:30;;;;;;;35.63;18.53;;;2.70;99.90;;;-143.32;100.00;97610.22;4791570;30;20434;-92
2020/12/29 11:08:01;;;;;;;36.00;20.40;;;2.70;99.90;;;-143.32;100.00;97673.66;4806309;30;20545;-93
2020/12/29 11:10:28;;;;;;;36.20;22.20;;;2.60;99.90;;;-143.32;100.00;97698.19;4790472;30;20458;-90
2020/12/29 11:13:04;;;;;;;39.60;21.60;;;2.70;99.90;;;-143.32;100.00;97663.41;4799755;29;20470;-91
2020/12/29 11:15:38;;;;;;;36.73;20.37;;;2.70;99.90;;;-143.32;100.00;97665.47;4805834;30;20466;-92
2020/12/29 11:18:07;;;;;;;47.57;22.43;;;2.60;99.90;;;-143.32;100.00;97685.94;4806589;30;20466;-92
2020/12/29 11:20:42;;;;;;;44.00;23.43;;;2.60;99.90;;;-143.32;100.00;97651.16;4804325;30;20450;-92
2020/12/29 11:25:44;;;;;;;43.47;24.03;;;2.70;99.90;;;-143.32;100.00;97675.69;4772741;24;20511;-91
2020/12/29 11:28:12;;;;;;;49.43;24.57;;;2.70;99.90;;;-143.32;100.00;97698.19;4768068;29;20499;-89
2020/12/29 11:43:28;;;;;;;53.47;26.37;;;2.80;99.90;;;-143.32;100.00;97653.19;4993338;24;20555;-92
2020/12/29 11:52:11;;;;;;;63.73;28.30;;;2.80;99.90;;;-143.32;100.00;97659.31;4837546;24;20521;-92